Mary Kathleen, Australia
Current Conditions -  °F | °C
As of 4:00 AM on Tuesday 25 Nov 2014 (Local Time) from YBMA Reporting Station
Clear Clear  
Wind Chill: 77°   Ceiling: Unl
Heat Index: 79°   Visibility: 6mi
Dew Point: 68°   Wind: 5mph
Humidity: 74%   Direction: 120°ESE
Pressure: 29.8"   Gusts: NA
Location:  20.78°S, 139.98°E
Report Text: YBMA 241800Z AUTO 12004KT 9999 // NCD 25/20 Q1009
Loading
Personal Weather Stations






























Interactive Weather Map New forecast layout! Learn more

10-Day Weather Forecast

Advertisements
Track Severe Weather on mobile